Greenwood Springs, Mississippi
Current Conditions -  °F | °C
As of 2:15 PM on Thursday 18 Dec 2014 (Local Time) from KM40 Reporting Station
Overcast Overcast  
Wind Chill: 50°   Ceiling: 4200
Heat Index: 50°   Visibility: 8mi
Dew Point: 34°   Wind: 3mph
Humidity: 54%   Direction: 350°N
Pressure: 30.18"   Gusts: NA
Location:  33.89°N, 88.31°W
Report Text: KM40 182015Z AUTO 35003KT 8SM OVC042 10/01 A3018 RMK AO2
Loading
Personal Weather Stations






























Interactive Weather Map New forecast layout! Learn more

10-Day Weather Forecast

Advertisements
Track Severe Weather on mobile